createdAt,value
2018-07-11T00:01:20.424Z,80.29
2018-07-11T00:03:54.784Z,80.49
2018-07-11T00:06:25.195Z,80.44
2018-07-11T00:08:53.924Z,81.45
2018-07-11T00:11:22.460Z,81.65
2018-07-11T00:13:52.691Z,81.76
2018-07-11T00:16:21.208Z,82.37
2018-07-11T00:18:49.707Z,82.84
2018-07-11T00:21:18.210Z,83.08
2018-07-11T00:23:49.477Z,83.30
2018-07-11T00:26:18.017Z,83.47
2018-07-11T00:28:46.534Z,83.65
2018-07-11T00:31:16.149Z,83.63
2018-07-11T00:33:44.658Z,83.70
2018-07-11T00:36:13.187Z,84.06
2018-07-11T00:38:41.742Z,83.91
2018-07-11T00:41:10.314Z,84.31
2018-07-11T00:43:38.853Z,84.62
2018-07-11T00:46:08.165Z,84.79
2018-07-11T00:48:36.721Z,85.52
2018-07-11T00:51:05.527Z,85.41
2018-07-11T00:53:37.601Z,85.63
2018-07-11T00:56:06.168Z,85.81
2018-07-11T00:58:45.578Z,85.68
2018-07-11T01:01:15.614Z,85.57
2018-07-11T01:03:55.961Z,85.53
2018-07-11T01:06:25.194Z,85.40
2018-07-11T01:08:58.134Z,85.56
2018-07-11T01:11:29.641Z,85.74
2018-07-11T01:13:58.164Z,85.72
2018-07-11T01:16:26.689Z,85.78
2018-07-11T01:19:00.616Z,85.60
2018-07-11T01:21:29.693Z,85.70
2018-07-11T01:24:00.689Z,85.98
2018-07-11T01:26:34.258Z,85.83
2018-07-11T01:29:02.896Z,85.74
2018-07-11T01:31:31.496Z,85.61
2018-07-11T01:34:00.554Z,85.52
2018-07-11T01:36:29.501Z,85.28
2018-07-11T01:38:59.877Z,85.46
2018-07-11T01:41:28.634Z,85.46
2018-07-11T01:43:57.170Z,85.63
2018-07-11T01:46:43.921Z,85.54
2018-07-11T01:49:12.553Z,85.70
2018-07-11T01:52:51.040Z,85.79
2018-07-11T01:55:20.699Z,85.75
2018-07-11T01:57:50.074Z,85.48
2018-07-11T02:00:21.281Z,85.82
2018-07-11T02:02:50.156Z,85.54
2018-07-11T02:05:18.672Z,85.74
2018-07-11T02:07:50.373Z,85.41
2018-07-11T02:10:19.135Z,85.63
2018-07-11T02:12:48.113Z,85.36
2018-07-11T02:15:17.018Z,85.38
2018-07-11T02:17:46.157Z,85.76
2018-07-11T02:20:16.208Z,85.58
2018-07-11T02:22:45.881Z,85.65
2018-07-11T02:25:15.721Z,85.63
2018-07-11T02:27:44.318Z,85.15
2018-07-11T02:30:12.823Z,85.10
2018-07-11T02:32:41.766Z,85.38
2018-07-11T02:35:10.294Z,85.01
2018-07-11T02:37:38.778Z,85.33
2018-07-11T02:40:07.312Z,85.33
2018-07-11T02:42:35.985Z,84.77
2018-07-11T02:45:04.555Z,85.18
2018-07-11T02:47:38.441Z,84.97
2018-07-11T02:50:07.068Z,85.29
2018-07-11T02:52:35.940Z,85.26
2018-07-11T02:55:04.490Z,85.07
2018-07-11T02:57:33.073Z,84.85
2018-07-11T03:00:01.557Z,85.12
2018-07-11T03:02:30.119Z,85.34
2018-07-11T03:04:58.881Z,85.37
2018-07-11T03:07:27.419Z,85.37
2018-07-11T03:09:55.921Z,85.52
2018-07-11T03:12:24.444Z,85.32
2018-07-11T03:14:53.298Z,85.72
2018-07-11T03:17:21.804Z,85.49
2018-07-11T03:19:50.325Z,85.71
2018-07-11T03:22:19.174Z,86.28
2018-07-11T03:24:47.662Z,86.06
2018-07-11T03:27:16.170Z,85.69
2018-07-11T03:29:44.682Z,85.74
2018-07-11T03:32:13.180Z,85.94
2018-07-11T03:34:41.860Z,86.17
2018-07-11T03:37:10.386Z,86.03
2018-07-11T03:39:39.967Z,85.96
2018-07-11T03:42:08.522Z,85.88
2018-07-11T03:44:37.061Z,86.21
2018-07-11T03:47:05.690Z,86.48
2018-07-11T03:49:34.257Z,86.06
2018-07-11T03:52:02.879Z,85.57
2018-07-11T03:54:31.378Z,85.09
2018-07-11T03:56:59.936Z,85.35
2018-07-11T03:59:28.400Z,85.42
2018-07-11T04:01:56.897Z,85.21
2018-07-11T04:04:25.437Z,84.90
2018-07-11T04:06:53.939Z,84.66
2018-07-11T04:09:22.405Z,84.57
2018-07-11T04:11:50.908Z,83.98
2018-07-11T04:14:19.365Z,83.26
2018-07-11T04:16:48.020Z,83.45
2018-07-11T04:19:16.582Z,82.80
2018-07-11T04:21:45.091Z,82.81
2018-07-11T04:24:13.566Z,82.62
2018-07-11T04:26:42.102Z,82.16
2018-07-11T04:29:10.637Z,81.67
2018-07-11T04:31:39.142Z,81.62
2018-07-11T04:34:07.917Z,81.96
2018-07-11T04:36:36.465Z,81.06
2018-07-11T04:39:05.530Z,80.50
2018-07-11T04:41:34.047Z,80.03
2018-07-11T04:44:02.585Z,79.60
2018-07-11T04:46:31.105Z,78.43
2018-07-11T04:48:59.790Z,78.52
2018-07-11T04:51:28.601Z,78.70
2018-07-11T04:53:57.723Z,79.23
2018-07-11T04:56:27.215Z,79.43
2018-07-11T04:58:55.758Z,79.05
2018-07-11T05:01:24.225Z,78.60
2018-07-11T05:03:52.764Z,78.18
2018-07-11T05:06:21.349Z,78.10
2018-07-11T05:08:49.859Z,77.30
2018-07-11T05:11:18.403Z,76.99
2018-07-11T05:13:47.321Z,76.30
2018-07-11T05:16:15.844Z,75.95
2018-07-11T05:18:44.720Z,75.61
2018-07-11T05:21:13.230Z,75.07
2018-07-11T05:23:41.723Z,75.73
2018-07-11T05:26:10.621Z,76.23
2018-07-11T05:28:39.092Z,75.90
2018-07-11T05:31:07.593Z,76.18
2018-07-11T05:33:36.518Z,76.73
2018-07-11T05:36:05.026Z,76.56
2018-07-11T05:38:33.550Z,76.49
2018-07-11T05:41:02.409Z,76.89
2018-07-11T05:43:30.879Z,77.11
2018-07-11T05:45:59.371Z,77.93
2018-07-11T05:48:27.874Z,77.23
2018-07-11T05:50:56.389Z,77.49
2018-07-11T05:53:24.901Z,77.57
2018-07-11T05:55:53.367Z,78.52
2018-07-11T05:58:22.180Z,78.40
2018-07-11T06:00:50.647Z,77.90
2018-07-11T06:03:19.226Z,77.80
2018-07-11T06:05:47.742Z,77.92
2018-07-11T06:08:16.265Z,77.38
2018-07-11T06:10:44.729Z,77.07
2018-07-11T06:13:13.246Z,77.12
2018-07-11T06:15:42.011Z,77.34
2018-07-11T06:18:10.514Z,78.24
2018-07-11T06:20:39.366Z,78.22
2018-07-11T06:23:07.822Z,78.03
2018-07-11T06:25:36.297Z,78.43
2018-07-11T06:28:04.831Z,79.53
2018-07-11T06:30:33.444Z,80.64
2018-07-11T06:33:01.960Z,83.12
2018-07-11T06:35:30.439Z,84.26
2018-07-11T06:37:58.982Z,85.31
2018-07-11T06:40:27.441Z,85.23
2018-07-11T06:42:55.950Z,85.00
2018-07-11T06:45:24.474Z,85.43
2018-07-11T06:47:53.037Z,84.87
2018-07-11T06:50:21.538Z,84.32
2018-07-11T06:52:50.049Z,83.86
2018-07-11T06:55:18.541Z,83.03
2018-07-11T06:57:47.018Z,82.53
2018-07-11T07:00:15.513Z,81.83
2018-07-11T07:02:44.026Z,80.91
2018-07-11T07:05:12.506Z,78.87
2018-07-11T07:07:40.990Z,78.21
2018-07-11T07:10:09.498Z,76.19
2018-07-11T07:12:38.095Z,74.56
2018-07-11T07:15:06.967Z,75.41
2018-07-11T07:17:35.436Z,75.03
2018-07-11T07:20:03.986Z,75.56
2018-07-11T07:22:32.526Z,75.60
2018-07-11T07:25:02.034Z,75.44
2018-07-11T07:27:30.569Z,74.59
2018-07-11T07:29:59.040Z,75.32
2018-07-11T07:32:27.540Z,74.31
2018-07-11T07:34:56.155Z,75.30
2018-07-11T07:37:24.673Z,74.78
2018-07-11T07:39:53.164Z,74.97
2018-07-11T07:42:21.698Z,75.85
2018-07-11T07:44:50.224Z,74.07
2018-07-11T07:47:24.171Z,73.28
2018-07-11T07:49:52.717Z,73.15
2018-07-11T07:52:21.267Z,74.98
2018-07-11T07:54:49.778Z,72.33
2018-07-11T07:57:18.329Z,73.62
2018-07-11T07:59:47.165Z,70.69
2018-07-11T08:02:15.754Z,70.71
2018-07-11T08:04:45.833Z,70.35
2018-07-11T08:07:14.334Z,69.77
2018-07-11T08:09:42.846Z,71.09
2018-07-11T08:12:11.450Z,70.53
2018-07-11T08:14:39.918Z,69.93
2018-07-11T08:17:08.522Z,68.57
2018-07-11T08:19:37.025Z,69.63
2018-07-11T08:22:16.754Z,68.51
2018-07-11T08:24:56.441Z,69.86
2018-07-11T08:27:37.058Z,71.49
2018-07-11T08:30:27.580Z,71.45
2018-07-11T08:34:07.713Z,72.27
2018-07-11T08:36:49.126Z,72.69
2018-07-11T08:42:03.684Z,73.86
2018-07-11T08:45:05.130Z,72.63
2018-07-11T08:47:49.069Z,72.73
2018-07-11T08:52:42.574Z,72.28
2018-07-11T08:55:25.222Z,74.11
2018-07-11T08:58:04.904Z,74.04
2018-07-11T09:00:44.770Z,74.06
2018-07-11T09:07:36.957Z,75.03
2018-07-11T09:10:14.597Z,74.80
2018-07-11T09:14:57.981Z,74.49
2018-07-11T09:19:45.677Z,70.40
2018-07-11T09:22:25.281Z,67.42
2018-07-11T09:24:53.796Z,69.06
2018-07-11T09:27:22.286Z,68.71
2018-07-11T09:29:50.821Z,65.75
2018-07-11T09:32:19.676Z,65.79
2018-07-11T09:34:48.182Z,68.17
2018-07-11T09:37:16.645Z,70.74
2018-07-11T09:39:45.181Z,70.12
2018-07-11T09:42:13.707Z,69.61
2018-07-11T09:44:42.221Z,70.61
2018-07-11T09:47:16.005Z,70.13
2018-07-11T09:49:44.838Z,67.48
2018-07-11T09:52:13.717Z,67.31
2018-07-11T09:54:42.262Z,69.60
2018-07-11T09:57:10.832Z,67.15
2018-07-11T09:59:39.344Z,65.71
2018-07-11T10:02:07.869Z,66.20
2018-07-11T10:04:36.428Z,65.21
2018-07-11T10:07:05.326Z,67.95
2018-07-11T10:09:33.998Z,67.72
2018-07-11T10:12:02.671Z,65.74
2018-07-11T10:14:30.996Z,65.13
2018-07-11T10:16:59.562Z,63.31
2018-07-11T10:19:28.101Z,63.29
2018-07-11T10:21:56.614Z,62.99
2018-07-11T10:24:25.139Z,66.11
2018-07-11T10:26:53.892Z,67.45
2018-07-11T10:29:22.417Z,67.27
2018-07-11T10:31:51.061Z,67.61
2018-07-11T10:34:19.541Z,67.71
2018-07-11T10:36:48.174Z,67.81
2018-07-11T10:39:16.674Z,67.39
2018-07-11T10:41:45.186Z,67.55
2018-07-11T10:44:13.702Z,65.91
2018-07-11T10:46:42.229Z,65.08
2018-07-11T10:49:10.775Z,64.92
2018-07-11T10:51:39.258Z,64.25
2018-07-11T10:54:08.218Z,64.72
2018-07-11T10:56:36.850Z,65.95
2018-07-11T10:59:05.410Z,64.48
2018-07-11T11:01:33.975Z,63.29
2018-07-11T11:04:02.499Z,62.35
2018-07-11T11:06:31.010Z,62.12
2018-07-11T11:08:59.538Z,60.84
2018-07-11T11:11:28.440Z,61.15
2018-07-11T11:13:56.949Z,60.56
2018-07-11T11:16:25.445Z,60.50
2018-07-11T11:18:54.338Z,59.94
2018-07-11T11:21:22.886Z,59.51
2018-07-11T11:23:51.406Z,60.04
2018-07-11T11:26:19.913Z,60.87
2018-07-11T11:28:48.418Z,60.35
2018-07-11T11:31:16.930Z,61.56
2018-07-11T11:33:45.416Z,61.31
2018-07-11T11:36:13.957Z,61.26
2018-07-11T11:38:42.449Z,60.15
2018-07-11T11:41:11.069Z,59.62
2018-07-11T11:43:39.762Z,59.55
2018-07-11T11:46:08.265Z,60.46
2018-07-11T11:48:36.811Z,59.94
2018-07-11T11:51:05.369Z,61.12
2018-07-11T11:53:33.850Z,60.70
2018-07-11T11:56:02.386Z,61.80
2018-07-11T11:58:30.925Z,60.37
2018-07-11T12:00:59.402Z,61.31
2018-07-11T12:03:27.909Z,58.83
2018-07-11T12:05:56.393Z,58.06
2018-07-11T12:08:24.889Z,57.94
2018-07-11T12:10:53.454Z,58.78
2018-07-11T12:13:21.917Z,59.07
2018-07-11T12:15:50.401Z,58.97
2018-07-11T12:18:18.888Z,58.01
2018-07-11T12:20:47.442Z,58.75
2018-07-11T12:23:16.057Z,58.30
2018-07-11T12:26:10.153Z,59.29
2018-07-11T12:28:38.653Z,59.12
2018-07-11T12:31:07.255Z,59.13
2018-07-11T12:33:36.103Z,58.04
2018-07-11T12:36:04.778Z,57.71
2018-07-11T12:38:34.047Z,57.95
2018-07-11T12:41:02.637Z,58.14
2018-07-11T12:43:31.327Z,58.36
2018-07-11T12:45:59.821Z,58.45
2018-07-11T12:48:33.965Z,57.21
2018-07-11T12:51:02.781Z,56.42
2018-07-11T12:53:31.282Z,55.68
2018-07-11T12:56:00.090Z,55.88
2018-07-11T12:58:28.640Z,56.24
2018-07-11T13:00:57.197Z,56.30
2018-07-11T13:03:26.266Z,56.52
2018-07-11T13:05:54.744Z,56.94
2018-07-11T13:08:23.292Z,55.85
2018-07-11T13:10:52.033Z,55.16
2018-07-11T13:13:21.038Z,55.21
2018-07-11T13:15:50.065Z,54.63
2018-07-11T13:18:18.560Z,54.08
2018-07-11T13:20:47.079Z,54.54
2018-07-11T13:23:16.056Z,54.57
2018-07-11T13:25:44.581Z,55.39
2018-07-11T13:28:13.117Z,55.13
2018-07-11T13:30:41.706Z,55.41
2018-07-11T13:33:10.239Z,56.38
2018-07-11T13:35:38.778Z,56.71
2018-07-11T13:38:09.051Z,57.25
2018-07-11T13:40:37.602Z,56.94
2018-07-11T13:43:06.077Z,58.44
2018-07-11T13:45:34.618Z,59.60
2018-07-11T13:48:03.913Z,59.26
2018-07-11T13:50:34.586Z,59.65
2018-07-11T13:53:03.405Z,59.12
2018-07-11T13:55:32.684Z,59.84
2018-07-11T13:58:02.450Z,60.46
2018-07-11T14:00:31.873Z,60.05
2018-07-11T14:03:00.421Z,60.20
2018-07-11T14:05:28.910Z,59.69
2018-07-11T14:07:57.500Z,59.45
2018-07-11T14:10:25.986Z,60.21
2018-07-11T14:12:54.464Z,59.75
2018-07-11T14:15:22.935Z,58.86
2018-07-11T14:17:51.400Z,59.25
2018-07-11T14:20:19.939Z,59.54
2018-07-11T14:22:49.018Z,59.34
2018-07-11T14:25:18.239Z,60.73
2018-07-11T14:27:48.204Z,60.82
2018-07-11T14:30:16.765Z,60.85
2018-07-11T14:32:50.767Z,60.28
2018-07-11T14:35:19.708Z,59.84
2018-07-11T14:37:49.413Z,59.32
2018-07-11T14:40:18.103Z,59.90
2018-07-11T14:42:46.921Z,59.69
2018-07-11T14:45:16.159Z,59.74
2018-07-11T14:47:50.104Z,60.61
2018-07-11T14:50:18.946Z,60.31
2018-07-11T14:52:47.748Z,59.97
2018-07-11T14:55:16.383Z,58.58
2018-07-11T14:57:44.922Z,59.25
2018-07-11T15:00:13.490Z,58.28
2018-07-11T15:02:42.012Z,58.47
2018-07-11T15:05:10.590Z,57.88
2018-07-11T15:07:39.112Z,57.86
2018-07-11T15:10:07.967Z,58.18
2018-07-11T15:12:36.477Z,58.25
2018-07-11T15:15:05.087Z,58.07
2018-07-11T15:17:33.842Z,58.37
2018-07-11T15:20:02.473Z,58.70
2018-07-11T15:22:31.033Z,59.07
2018-07-11T15:24:59.587Z,59.22
2018-07-11T15:27:28.129Z,58.99
2018-07-11T15:29:57.092Z,58.79
2018-07-11T15:32:25.621Z,59.45
2018-07-11T15:34:54.278Z,59.75
2018-07-11T15:37:22.851Z,60.51
2018-07-11T15:39:52.260Z,60.62
2018-07-11T15:42:21.140Z,60.98
2018-07-11T15:44:50.661Z,61.74
2018-07-11T15:47:21.248Z,61.81
2018-07-11T15:49:51.742Z,62.03
2018-07-11T15:52:22.089Z,61.63
2018-07-11T15:54:50.642Z,60.06
2018-07-11T15:57:25.958Z,60.88
2018-07-11T16:00:01.334Z,61.76
2018-07-11T16:02:30.754Z,61.88
2018-07-11T16:04:59.785Z,61.23
2018-07-11T16:07:29.597Z,60.56
2018-07-11T16:09:59.412Z,60.40
2018-07-11T16:12:27.915Z,60.27
2018-07-11T16:14:57.224Z,58.29
2018-07-11T16:17:25.762Z,57.78
2018-07-11T16:19:54.641Z,56.35
2018-07-11T16:22:23.712Z,56.46
2018-07-11T16:24:52.241Z,55.97
2018-07-11T16:27:21.204Z,54.83
2018-07-11T16:29:49.990Z,53.50
2018-07-11T16:32:18.545Z,54.30
2018-07-11T16:34:47.036Z,54.65
2018-07-11T16:37:15.569Z,56.10
2018-07-11T16:39:44.378Z,56.27
2018-07-11T16:42:12.922Z,56.33
2018-07-11T16:44:41.495Z,57.44
2018-07-11T16:47:10.033Z,58.15
2018-07-11T16:49:41.205Z,58.92
2018-07-11T16:52:09.991Z,59.75
2018-07-11T16:54:38.615Z,59.70
2018-07-11T16:57:08.542Z,59.69
2018-07-11T17:00:10.711Z,59.96
2018-07-11T17:02:42.437Z,58.95
2018-07-11T17:05:11.856Z,59.34
2018-07-11T17:07:59.881Z,60.42
2018-07-11T17:10:30.718Z,60.42
2018-07-11T17:13:13.213Z,60.57
2018-07-11T17:15:46.302Z,61.29
2018-07-11T17:18:34.061Z,61.75
2018-07-11T17:21:07.286Z,62.57
2018-07-11T17:23:36.248Z,62.57
2018-07-11T17:26:05.290Z,62.27
2018-07-11T17:28:33.969Z,61.79
2018-07-11T17:31:02.819Z,62.33
2018-07-11T17:33:31.575Z,62.42
2018-07-11T17:36:00.312Z,62.96
2018-07-11T17:38:31.342Z,62.76
2018-07-11T17:41:02.168Z,63.36
2018-07-11T17:43:37.400Z,63.43
2018-07-11T17:46:07.399Z,63.24
2018-07-11T17:48:44.460Z,63.29
2018-07-11T17:51:26.141Z,63.16
2018-07-11T17:53:56.592Z,63.17
2018-07-11T17:56:34.839Z,62.63
2018-07-11T17:59:03.444Z,63.21
2018-07-11T18:01:40.570Z,62.74
2018-07-11T18:04:35.255Z,62.49
2018-07-11T18:07:11.997Z,61.99
2018-07-11T18:09:50.500Z,61.97
2018-07-11T18:12:27.405Z,62.21
2018-07-11T18:15:04.645Z,62.01
2018-07-11T18:17:47.190Z,61.93
2018-07-11T18:20:22.236Z,61.81
2018-07-11T18:22:58.208Z,61.72
2018-07-11T18:25:34.893Z,61.59
2018-07-11T18:28:11.386Z,61.51
2018-07-11T18:30:51.109Z,61.47
2018-07-11T18:33:31.652Z,61.22
2018-07-11T18:36:11.460Z,61.04
2018-07-11T18:40:58.030Z,60.90
2018-07-11T18:43:35.105Z,60.64
2018-07-11T18:46:44.073Z,60.81
2018-07-11T18:49:20.813Z,61.23
2018-07-11T18:52:31.236Z,60.65
2018-07-11T18:55:36.984Z,60.97
2018-07-11T18:58:45.104Z,60.94
2018-07-11T19:01:19.780Z,60.96
2018-07-11T19:04:27.450Z,61.25
2018-07-11T19:07:09.433Z,60.64
2018-07-11T19:09:49.938Z,61.30
2018-07-11T19:12:38.599Z,61.71
2018-07-11T19:15:14.745Z,61.74
2018-07-11T19:18:02.913Z,62.13
2018-07-11T19:20:34.336Z,62.20
2018-07-11T19:24:12.761Z,62.63
2018-07-11T19:26:55.922Z,63.27
2018-07-11T19:30:34.129Z,63.54
2018-07-11T19:33:09.729Z,64.19
2018-07-11T19:37:53.485Z,64.20
2018-07-11T19:41:33.227Z,65.34
2018-07-11T19:46:20.849Z,65.67
2018-07-11T19:49:00.669Z,66.39
2018-07-11T19:51:40.271Z,66.57
2018-07-11T19:54:18.161Z,66.82
2018-07-11T19:56:48.667Z,66.83
2018-07-11T19:59:18.150Z,67.06
2018-07-11T20:01:47.026Z,67.34
2018-07-11T20:04:16.039Z,67.06
2018-07-11T20:06:44.830Z,67.32
2018-07-11T20:09:13.559Z,67.71
2018-07-11T20:11:42.104Z,67.76
2018-07-11T20:14:10.773Z,68.31
2018-07-11T20:16:39.311Z,68.23
2018-07-11T20:19:07.864Z,68.31
2018-07-11T20:21:36.417Z,68.84
2018-07-11T20:24:04.897Z,69.11
2018-07-11T20:26:33.763Z,69.46
2018-07-11T20:29:02.289Z,70.03
2018-07-11T20:31:30.830Z,70.16
2018-07-11T20:33:59.345Z,69.85
2018-07-11T20:36:27.940Z,70.46
2018-07-11T20:38:57.232Z,70.38
2018-07-11T20:41:25.727Z,70.27
2018-07-11T20:43:54.363Z,70.50
2018-07-11T20:46:23.191Z,70.36
2018-07-11T20:48:51.944Z,70.52
2018-07-11T20:51:20.784Z,70.41
2018-07-11T20:53:49.438Z,70.81
2018-07-11T20:56:18.187Z,70.76
2018-07-11T20:58:58.266Z,71.33
2018-07-11T21:01:38.251Z,70.77
2018-07-11T21:07:21.090Z,71.44
2018-07-11T21:10:02.341Z,71.80
2018-07-11T21:12:43.876Z,72.31
2018-07-11T21:15:22.779Z,72.13
2018-07-11T21:19:09.582Z,72.31
2018-07-11T21:21:39.381Z,72.80
2018-07-11T21:24:09.104Z,73.13
2018-07-11T21:26:38.523Z,73.64
2018-07-11T21:29:07.422Z,73.61
2018-07-11T21:31:36.276Z,73.97
2018-07-11T21:34:05.095Z,74.11
2018-07-11T21:36:33.833Z,74.22
2018-07-11T21:39:02.637Z,74.43
2018-07-11T21:41:31.331Z,74.66
2018-07-11T21:44:00.032Z,74.94
2018-07-11T21:46:28.838Z,74.73
2018-07-11T21:48:57.528Z,75.13
2018-07-11T21:51:30.156Z,75.84
2018-07-11T21:53:58.775Z,75.63
2018-07-11T21:56:27.512Z,76.08
2018-07-11T21:58:57.338Z,76.51
2018-07-11T22:01:26.056Z,76.91
2018-07-11T22:03:56.317Z,77.20
2018-07-11T22:06:25.199Z,77.29
2018-07-11T22:08:53.997Z,77.53
2018-07-11T22:11:23.336Z,78.02
2018-07-11T22:13:52.217Z,77.81
2018-07-11T22:16:23.770Z,78.47
2018-07-11T22:18:52.361Z,78.27
2018-07-11T22:21:19.913Z,78.63
2018-07-11T22:24:50.513Z,78.40
2018-07-11T22:27:18.085Z,78.99
2018-07-11T22:29:45.586Z,79.08
2018-07-11T22:32:14.414Z,79.22
2018-07-11T22:34:41.930Z,79.60
2018-07-11T22:37:09.405Z,79.55
2018-07-11T22:39:36.975Z,79.31
2018-07-11T22:42:08.282Z,79.66
2018-07-11T22:44:36.171Z,79.58
2018-07-11T22:47:04.108Z,79.82
2018-07-11T22:49:31.673Z,80.02
2018-07-11T22:51:59.212Z,80.31
2018-07-11T22:54:26.781Z,80.57
2018-07-11T22:56:54.347Z,80.69
2018-07-11T22:59:22.793Z,81.10
2018-07-11T23:01:50.330Z,81.70
2018-07-11T23:04:18.032Z,81.99
2018-07-11T23:06:45.509Z,82.23
2018-07-11T23:09:13.078Z,82.33
2018-07-11T23:11:40.898Z,82.55
2018-07-11T23:14:08.956Z,83.06
2018-07-11T23:16:49.126Z,83.31
2018-07-11T23:19:16.730Z,83.66
2018-07-11T23:21:44.289Z,83.82
2018-07-11T23:24:11.830Z,84.12
2018-07-11T23:26:39.642Z,84.35
2018-07-11T23:29:07.183Z,84.55
2018-07-11T23:31:34.756Z,84.51
2018-07-11T23:34:02.856Z,84.39
2018-07-11T23:36:30.468Z,84.99
2018-07-11T23:38:58.258Z,84.91
2018-07-11T23:41:25.768Z,84.82
2018-07-11T23:43:53.438Z,84.88
2018-07-11T23:46:21.324Z,84.92
2018-07-11T23:48:48.897Z,85.00
2018-07-11T23:51:16.677Z,85.31
2018-07-11T23:53:44.142Z,85.91
2018-07-11T23:56:11.718Z,86.46
2018-07-11T23:58:39.392Z,85.93
